createdAt,value
2022-09-28T00:03:14.391Z,99626.75
2022-09-28T00:08:18.859Z,99631.91
2022-09-28T00:13:21.904Z,99623.09
2022-09-28T00:18:24.919Z,99607.44
2022-09-28T00:23:29.342Z,99610.00
2022-09-28T00:28:32.863Z,99615.44
2022-09-28T00:33:36.263Z,99632.06
2022-09-28T00:38:41.004Z,99631.09
2022-09-28T00:43:44.077Z,99624.88
2022-09-28T00:48:53.872Z,99609.03
2022-09-28T00:54:00.573Z,99608.97
2022-09-28T00:59:04.847Z,99611.44
2022-09-28T01:04:08.755Z,99612.31
2022-09-28T01:09:15.441Z,99612.31
2022-09-28T01:14:19.199Z,99605.22
2022-09-28T01:19:44.904Z,99606.13
2022-09-28T01:24:51.177Z,99614.88
2022-09-28T01:30:06.616Z,99610.34
2022-09-28T01:35:16.125Z,99614.78
2022-09-28T01:40:21.295Z,99626.97
2022-09-28T01:45:32.159Z,99631.97
2022-09-28T01:50:38.076Z,99631.84
2022-09-28T01:55:46.149Z,99619.44
2022-09-28T02:00:55.458Z,99616.75
2022-09-28T02:06:04.174Z,99614.91
2022-09-28T02:11:12.239Z,99610.50
2022-09-28T02:16:22.718Z,99602.53
2022-09-28T02:21:30.924Z,99607.13
2022-09-28T02:26:37.205Z,99606.25
2022-09-28T02:31:41.664Z,99617.63
2022-09-28T02:36:46.505Z,99610.66
2022-09-28T02:42:09.002Z,99609.84
2022-09-28T02:47:26.008Z,99609.66
2022-09-28T02:52:46.189Z,99609.56
2022-09-28T02:58:04.816Z,99618.13
2022-09-28T03:03:19.895Z,99628.59
2022-09-28T03:08:28.823Z,99632.81
2022-09-28T03:13:32.963Z,99628.63
2022-09-28T03:18:37.480Z,99633.03
2022-09-28T03:23:41.262Z,99620.81
2022-09-28T03:28:44.753Z,99638.44
2022-09-28T03:33:55.706Z,99640.06
2022-09-28T03:38:59.687Z,99632.25
2022-09-28T03:44:03.842Z,99613.72
2022-09-28T03:49:10.409Z,99619.06
2022-09-28T03:54:13.986Z,99619.88
2022-09-28T03:59:17.342Z,99626.97
2022-09-28T04:04:21.952Z,99619.13
2022-09-28T04:09:24.930Z,99620.84
2022-09-28T04:14:28.000Z,99609.47
2022-09-28T04:19:34.856Z,99605.97
2022-09-28T04:24:58.109Z,99625.97
2022-09-28T04:30:04.299Z,99621.59
2022-09-28T04:35:12.954Z,99633.84
2022-09-28T04:40:16.245Z,99641.78
2022-09-28T04:45:19.620Z,99624.28
2022-09-28T04:50:24.560Z,99631.38
2022-09-28T04:55:57.841Z,99639.38
2022-09-28T05:01:05.740Z,99634.06
2022-09-28T05:06:33.374Z,99635.63
2022-09-28T05:11:43.265Z,99641.72
2022-09-28T05:16:52.159Z,99636.38
2022-09-28T05:22:00.560Z,99631.06
2022-09-28T05:27:03.774Z,99629.03
2022-09-28T05:32:06.973Z,99630.00
2022-09-28T05:37:21.712Z,99645.94
2022-09-28T05:42:24.882Z,99632.88
2022-09-28T05:47:28.342Z,99649.94
2022-09-28T05:52:32.964Z,99654.34
2022-09-28T05:57:36.696Z,99642.91
2022-09-28T06:02:40.504Z,99637.72
2022-09-28T06:07:48.163Z,99631.53
2022-09-28T06:12:53.941Z,99634.97
2022-09-28T06:18:00.565Z,99627.09
2022-09-28T06:23:18.314Z,99631.44
2022-09-28T06:28:22.329Z,99640.44
2022-09-28T06:33:25.772Z,99657.94
2022-09-28T06:38:34.158Z,99658.09
2022-09-28T06:43:39.618Z,99658.25
2022-09-28T06:48:49.157Z,99660.06
2022-09-28T06:54:05.290Z,99661.09
2022-09-28T06:59:40.810Z,99643.59
2022-09-28T07:04:44.113Z,99666.50
2022-09-28T07:15:40.223Z,99690.47
2022-09-28T07:20:53.560Z,99694.91
2022-09-28T07:25:59.799Z,99702.00
2022-09-28T07:31:26.393Z,99700.28
2022-09-28T07:36:58.409Z,99705.56
2022-09-28T07:42:03.563Z,99689.78
2022-09-28T07:47:07.753Z,99698.72
2022-09-28T07:52:49.454Z,99713.00
2022-09-28T07:58:06.173Z,99710.59
2022-09-28T08:03:48.101Z,99718.63
2022-09-28T08:08:52.924Z,99703.78
2022-09-28T08:14:03.143Z,99720.69
2022-09-28T08:19:24.926Z,99728.91
2022-09-28T08:24:31.071Z,99735.41
2022-09-28T08:29:36.265Z,99725.25
2022-09-28T08:35:15.497Z,99735.31
2022-09-28T08:40:28.802Z,99751.66
2022-09-28T08:45:59.805Z,99754.72
2022-09-28T08:51:31.381Z,99753.47
2022-09-28T08:56:51.525Z,99740.75
2022-09-28T09:02:00.116Z,99735.78
2022-09-28T09:07:28.892Z,99747.47
2022-09-28T09:18:11.061Z,99762.81
2022-09-28T09:23:37.024Z,99754.28
2022-09-28T09:29:09.863Z,99773.97
2022-09-28T09:34:43.402Z,99765.34
2022-09-28T09:40:43.425Z,99772.38
2022-09-28T09:46:16.925Z,99772.41
2022-09-28T09:51:47.036Z,99781.28
2022-09-28T09:56:56.753Z,99782.16
2022-09-28T10:02:36.783Z,99771.53
2022-09-28T10:07:55.931Z,99785.50
2022-09-28T10:13:01.914Z,99770.50
2022-09-28T10:18:10.232Z,99784.78
2022-09-28T10:23:37.795Z,99785.59
2022-09-28T10:28:46.538Z,99773.09
2022-09-28T10:33:50.338Z,99767.56
2022-09-28T10:38:56.014Z,99781.72
2022-09-28T10:44:11.117Z,99782.78
2022-09-28T10:49:46.007Z,99781.78
2022-09-28T10:54:55.179Z,99763.31
2022-09-28T11:00:02.639Z,99779.31
2022-09-28T11:05:22.600Z,99774.97
2022-09-28T11:10:31.352Z,99768.69
2022-09-28T11:15:45.379Z,99778.31
2022-09-28T11:21:12.820Z,99773.00
2022-09-28T11:26:21.309Z,99769.44
2022-09-28T11:31:30.561Z,99771.22
2022-09-28T11:37:01.511Z,99759.66
2022-09-28T11:42:23.552Z,99768.44
2022-09-28T11:47:47.153Z,99756.91
2022-09-28T11:53:00.391Z,99751.44
2022-09-28T11:58:11.335Z,99762.72
2022-09-28T12:03:19.744Z,99767.28
2022-09-28T12:08:28.609Z,99760.28
2022-09-28T12:13:42.299Z,99770.06
2022-09-28T12:18:51.586Z,99770.41
2022-09-28T12:23:58.002Z,99765.72
2022-09-28T12:29:06.639Z,99775.97
2022-09-28T12:34:11.178Z,99761.25
2022-09-28T12:39:46.881Z,99769.41
2022-09-28T12:45:06.874Z,99775.53
2022-09-28T12:50:40.295Z,99782.38
2022-09-28T12:55:56.488Z,99773.34
2022-09-28T13:01:15.723Z,99785.75
2022-09-28T13:06:39.071Z,99797.13
2022-09-28T13:11:52.248Z,99806.66
2022-09-28T13:17:01.020Z,99812.94
2022-09-28T13:22:20.492Z,99823.47
2022-09-28T13:27:33.620Z,99804.97
2022-09-28T13:32:39.449Z,99800.56
2022-09-28T13:37:42.635Z,99814.75
2022-09-28T13:43:03.466Z,99818.31
2022-09-28T13:48:16.040Z,99817.38
2022-09-28T13:53:33.077Z,99826.16
2022-09-28T13:58:42.752Z,99829.69
2022-09-28T14:03:57.775Z,99817.41
2022-09-28T14:09:29.492Z,99821.84
2022-09-28T14:14:50.711Z,99819.16
2022-09-28T14:20:09.513Z,99789.19
2022-09-28T14:25:18.794Z,99804.09
2022-09-28T14:30:24.522Z,99804.81
2022-09-28T14:35:35.091Z,99793.28
2022-09-28T14:41:12.896Z,99792.41
2022-09-28T14:46:36.816Z,99803.72
2022-09-28T14:52:03.120Z,99810.34
2022-09-28T14:57:14.103Z,99813.66
2022-09-28T15:02:26.146Z,99821.78
2022-09-28T15:07:44.098Z,99828.22
2022-09-28T15:12:47.304Z,99841.16
2022-09-28T15:17:57.053Z,99838.78
2022-09-28T15:23:01.553Z,99842.91
2022-09-28T15:28:22.218Z,99828.56
2022-09-28T15:33:44.013Z,99854.97
2022-09-28T15:38:58.201Z,99855.94
2022-09-28T15:44:23.516Z,99851.47
2022-09-28T15:49:38.735Z,99828.53
2022-09-28T15:54:45.822Z,99834.97
2022-09-28T15:59:57.021Z,99860.56
2022-09-28T16:05:02.493Z,99869.47
2022-09-28T16:10:30.955Z,99857.09
2022-09-28T16:15:36.279Z,99867.66
2022-09-28T16:20:41.173Z,99862.41
2022-09-28T16:25:52.170Z,99852.72
2022-09-28T16:31:03.160Z,99849.16
2022-09-28T16:36:13.495Z,99850.03
2022-09-28T16:41:22.782Z,99849.16
2022-09-28T16:46:31.532Z,99856.19
2022-09-28T16:51:34.940Z,99854.34
2022-09-28T16:56:39.644Z,99825.09
2022-09-28T17:01:43.857Z,99858.63
2022-09-28T17:06:47.441Z,99860.38
2022-09-28T17:11:56.321Z,99879.72
2022-09-28T17:17:09.049Z,99869.09
2022-09-28T17:22:16.985Z,99884.91
2022-09-28T17:27:22.136Z,99883.97
2022-09-28T17:32:25.103Z,99889.22
2022-09-28T17:37:28.519Z,99859.03
2022-09-28T17:42:33.005Z,99893.38
2022-09-28T17:47:36.304Z,99907.41
2022-09-28T17:52:39.391Z,99895.00
2022-09-28T17:57:43.763Z,99887.84
2022-09-28T18:02:47.120Z,99903.63
2022-09-28T18:07:50.763Z,99860.13
2022-09-28T18:12:55.571Z,99910.38
2022-09-28T18:17:58.645Z,99910.22
2022-09-28T18:23:01.735Z,99911.81
2022-09-28T18:28:06.396Z,99919.59
2022-09-28T18:33:13.312Z,99916.81
2022-09-28T18:38:16.409Z,99897.22
2022-09-28T18:43:20.858Z,99927.94
2022-09-28T18:48:27.925Z,99925.13
2022-09-28T18:53:34.789Z,99928.50
2022-09-28T18:58:40.584Z,99913.28
2022-09-28T19:03:43.766Z,99931.66
2022-09-28T19:08:52.978Z,99932.41
2022-09-28T19:13:57.437Z,99926.13
2022-09-28T19:19:03.413Z,99924.94
2022-09-28T19:24:06.648Z,99927.53
2022-09-28T19:29:12.336Z,99932.53
2022-09-28T19:34:15.485Z,99948.25
2022-09-28T19:39:18.506Z,99940.19
2022-09-28T19:44:25.693Z,99942.81
2022-09-28T19:49:33.161Z,99951.41
2022-09-28T19:54:36.790Z,99947.66
2022-09-28T19:59:41.218Z,99958.94
2022-09-28T20:04:44.384Z,99957.00
2022-09-28T20:09:49.746Z,99963.94
2022-09-28T20:14:54.612Z,99964.69
2022-09-28T20:19:57.636Z,99971.56
2022-09-28T20:25:03.779Z,99944.03
2022-09-28T20:30:11.177Z,99954.53
2022-09-28T20:35:22.329Z,99958.88
2022-09-28T20:40:35.159Z,99961.44
2022-09-28T20:45:41.654Z,99940.06
2022-09-28T20:50:44.766Z,99955.13
2022-09-28T20:55:47.782Z,99938.16
2022-09-28T21:00:52.064Z,99959.28
2022-09-28T21:05:55.535Z,99950.31
2022-09-28T21:10:58.703Z,99957.34
2022-09-28T21:16:04.889Z,99946.56
2022-09-28T21:21:09.700Z,99950.91
2022-09-28T21:26:14.475Z,99965.91
2022-09-28T21:31:21.847Z,99936.56
2022-09-28T21:36:27.918Z,99969.28
2022-09-28T21:41:33.625Z,99978.84
2022-09-28T21:46:39.402Z,99971.81
2022-09-28T21:51:42.997Z,99976.06
2022-09-28T21:56:46.294Z,99975.97
2022-09-28T22:01:50.766Z,99971.38
2022-09-28T22:06:54.015Z,99973.03
2022-09-28T22:11:57.623Z,100000.19
2022-09-28T22:17:02.261Z,99993.06
2022-09-28T22:22:05.307Z,99989.31
2022-09-28T22:27:08.483Z,100003.44
2022-09-28T22:32:13.027Z,100002.47
2022-09-28T22:37:16.424Z,99983.72
2022-09-28T22:42:20.716Z,99978.25
2022-09-28T22:47:25.274Z,99982.47
2022-09-28T22:52:28.484Z,99991.16
2022-09-28T22:57:31.627Z,100007.72
2022-09-28T23:02:38.774Z,99992.59
2022-09-28T23:07:41.757Z,100008.50
2022-09-28T23:12:45.150Z,100005.69
2022-09-28T23:17:52.024Z,99983.38
2022-09-28T23:22:55.104Z,100008.03
2022-09-28T23:27:58.060Z,99985.06
2022-09-28T23:33:03.139Z,100003.44
2022-09-28T23:38:07.156Z,100005.19
2022-09-28T23:43:10.166Z,100002.31
2022-09-28T23:48:15.667Z,100009.97
2022-09-28T23:53:18.669Z,99990.50
2022-09-28T23:58:22.034Z,100008.06
